Terminal Aerodrome Forecast
Issued by NWS

Home | Current Version | Previous Version | Text Only | Print | Product List | Glossary On
Versions: 1 2 3 4 5 6 7 8 9 10 11 12 13 14 15 16 17 18 19 20 21
000
FTUS45 KVEF 280500
TAFVGT
TAF
KVGT 280535Z 2806/2906 33009KT P6SM SCT120
     FM280900 VRB06KT P6SM SCT120
     FM281900 15010KT P6SM VCTS SCT100CB=

USA.gov is the U.S. government's official web portal to all federal, state and local government web resources and services.